createdAt,value
2018-05-26T00:00:23.100Z,17.30
2018-05-26T00:02:51.682Z,17.29
2018-05-26T00:05:20.251Z,17.30
2018-05-26T00:07:48.854Z,17.21
2018-05-26T00:10:17.451Z,17.06
2018-05-26T00:12:46.016Z,17.03
2018-05-26T00:15:14.578Z,17.00
2018-05-26T00:17:43.132Z,17.01
2018-05-26T00:20:11.709Z,17.06
2018-05-26T00:22:40.036Z,17.10
2018-05-26T00:25:08.601Z,17.09
2018-05-26T00:27:37.186Z,16.97
2018-05-26T00:30:07.399Z,17.01
2018-05-26T00:32:35.964Z,17.04
2018-05-26T00:35:04.529Z,16.99
2018-05-26T00:37:33.094Z,17.00
2018-05-26T00:40:01.642Z,17.07
2018-05-26T00:42:30.365Z,17.11
2018-05-26T00:44:58.955Z,17.12
2018-05-26T00:47:27.525Z,17.13
2018-05-26T00:49:56.100Z,17.11
2018-05-26T00:52:24.663Z,17.12
2018-05-26T00:54:53.277Z,17.11
2018-05-26T00:57:21.937Z,17.06
2018-05-26T00:59:50.557Z,17.07
2018-05-26T01:02:19.139Z,17.08
2018-05-26T01:04:48.609Z,17.03
2018-05-26T01:07:17.219Z,17.03
2018-05-26T01:09:45.799Z,17.06
2018-05-26T01:12:14.383Z,17.12
2018-05-26T01:14:42.969Z,17.14
2018-05-26T01:17:11.531Z,17.15
2018-05-26T01:19:40.108Z,17.23
2018-05-26T01:22:08.670Z,17.30
2018-05-26T01:24:37.220Z,17.30
2018-05-26T01:27:05.825Z,17.34
2018-05-26T01:29:34.388Z,17.36
2018-05-26T01:32:02.953Z,17.39
2018-05-26T01:34:31.517Z,17.38
2018-05-26T01:37:00.062Z,17.40
2018-05-26T01:39:28.621Z,17.37
2018-05-26T01:41:57.177Z,17.35
2018-05-26T01:44:25.739Z,17.30
2018-05-26T01:46:54.296Z,17.31
2018-05-26T01:49:22.867Z,17.28
2018-05-26T01:51:51.484Z,17.29
2018-05-26T01:54:20.057Z,17.29
2018-05-26T01:56:48.642Z,17.28
2018-05-26T01:59:17.226Z,17.25
2018-05-26T02:01:45.798Z,17.22
2018-05-26T02:04:14.364Z,17.12
2018-05-26T02:06:42.929Z,17.06
2018-05-26T02:09:11.508Z,17.01
2018-05-26T02:11:40.082Z,16.94
2018-05-26T02:14:08.647Z,16.89
2018-05-26T02:16:37.220Z,16.87
2018-05-26T02:19:05.790Z,16.87
2018-05-26T02:21:34.357Z,16.85
2018-05-26T02:24:02.927Z,16.89
2018-05-26T02:26:31.491Z,16.92
2018-05-26T02:29:00.076Z,16.79
2018-05-26T02:31:28.641Z,16.82
2018-05-26T02:33:57.216Z,16.84
2018-05-26T02:36:25.788Z,16.87
2018-05-26T02:38:54.370Z,16.77
2018-05-26T02:41:22.918Z,16.71
2018-05-26T02:43:51.497Z,16.64
2018-05-26T02:46:20.270Z,16.61
2018-05-26T02:48:48.850Z,16.59
2018-05-26T02:51:17.434Z,16.59
2018-05-26T02:53:46.013Z,16.66
2018-05-26T02:56:14.619Z,16.69
2018-05-26T02:58:43.187Z,16.60
2018-05-26T03:01:11.757Z,16.56
2018-05-26T03:03:40.121Z,16.54
2018-05-26T03:06:14.066Z,16.50
2018-05-26T03:08:47.931Z,16.42
2018-05-26T03:11:21.947Z,16.45
2018-05-26T03:13:56.050Z,16.46
2018-05-26T03:16:29.886Z,16.46
2018-05-26T03:18:57.865Z,16.47
2018-05-26T03:21:26.431Z,16.52
2018-05-26T03:23:54.993Z,16.58
2018-05-26T03:26:23.559Z,16.60
2018-05-26T03:28:53.320Z,16.64
2018-05-26T03:31:22.093Z,16.71
2018-05-26T03:33:50.665Z,16.71
2018-05-26T03:36:19.288Z,16.73
2018-05-26T03:38:48.013Z,16.80
2018-05-26T03:41:16.613Z,16.83
2018-05-26T03:43:46.280Z,16.87
2018-05-26T03:46:14.871Z,16.92
2018-05-26T03:48:43.435Z,16.90
2018-05-26T03:51:11.995Z,16.88
2018-05-26T03:53:40.546Z,16.89
2018-05-26T03:56:20.135Z,16.97
2018-05-26T03:58:59.707Z,17.00
2018-05-26T04:01:28.917Z,17.10
2018-05-26T04:03:57.484Z,17.11
2018-05-26T04:06:26.045Z,17.18
2018-05-26T04:08:54.603Z,17.21
2018-05-26T04:11:24.894Z,17.30
2018-05-26T04:13:53.612Z,17.39
2018-05-26T04:16:22.166Z,17.45
2018-05-26T04:18:50.728Z,17.52
2018-05-26T04:21:19.296Z,17.57
2018-05-26T04:23:47.853Z,17.60
2018-05-26T04:26:16.475Z,17.62
2018-05-26T04:28:45.044Z,17.66
2018-05-26T04:31:13.607Z,17.73
2018-05-26T04:33:42.202Z,17.80
2018-05-26T04:36:10.763Z,17.78
2018-05-26T04:38:39.313Z,17.83
2018-05-26T04:41:07.875Z,17.97
2018-05-26T04:43:36.430Z,18.14
2018-05-26T04:46:04.986Z,18.46
2018-05-26T04:48:33.547Z,19.04
2018-05-26T04:51:02.126Z,19.88
2018-05-26T04:53:30.732Z,20.81
2018-05-26T04:55:59.300Z,21.80
2018-05-26T04:58:27.863Z,22.57
2018-05-26T05:00:56.415Z,23.10
2018-05-26T05:03:25.015Z,23.72
2018-05-26T05:05:53.650Z,24.54
2018-05-26T05:08:22.216Z,24.64
2018-05-26T05:10:50.788Z,25.13
2018-05-26T05:13:19.342Z,25.45
2018-05-26T05:15:47.898Z,25.82
2018-05-26T05:18:16.468Z,25.93
2018-05-26T05:20:45.034Z,26.16
2018-05-26T05:23:13.600Z,26.18
2018-05-26T05:25:42.163Z,26.45
2018-05-26T05:28:10.719Z,26.38
2018-05-26T05:30:39.282Z,26.52
2018-05-26T05:33:07.848Z,26.69
2018-05-26T05:35:37.544Z,26.75
2018-05-26T05:38:06.109Z,26.80
2018-05-26T05:40:34.675Z,26.73
2018-05-26T05:43:03.225Z,26.67
2018-05-26T05:45:31.774Z,26.40
2018-05-26T05:48:00.324Z,26.23
2018-05-26T05:50:28.880Z,25.89
2018-05-26T05:52:57.456Z,25.73
2018-05-26T05:55:26.028Z,25.36
2018-05-26T05:57:54.575Z,24.77
2018-05-26T06:00:23.265Z,24.50
2018-05-26T06:02:51.817Z,24.16
2018-05-26T06:05:20.371Z,23.99
2018-05-26T06:07:48.932Z,23.86
2018-05-26T06:10:17.482Z,23.77
2018-05-26T06:12:46.026Z,23.79
2018-05-26T06:15:14.596Z,23.72
2018-05-26T06:17:43.004Z,23.72
2018-05-26T06:20:11.559Z,23.41
2018-05-26T06:22:40.143Z,23.37
2018-05-26T06:25:08.695Z,23.11
2018-05-26T06:27:37.238Z,23.03
2018-05-26T06:30:06.383Z,22.93
2018-05-26T06:32:34.928Z,22.76
2018-05-26T06:35:03.480Z,22.48
2018-05-26T06:37:32.037Z,22.60
2018-05-26T06:40:00.586Z,22.58
2018-05-26T06:42:29.165Z,22.44
2018-05-26T06:44:57.787Z,22.42
2018-05-26T06:47:26.373Z,22.44
2018-05-26T06:49:54.938Z,22.24
2018-05-26T06:52:23.523Z,22.17
2018-05-26T06:54:52.067Z,22.15
2018-05-26T06:57:20.614Z,22.14
2018-05-26T06:59:49.202Z,22.13
2018-05-26T07:02:17.763Z,22.32
2018-05-26T07:04:46.367Z,22.38
2018-05-26T07:07:14.957Z,22.35
2018-05-26T07:09:43.507Z,22.43
2018-05-26T07:12:12.061Z,22.38
2018-05-26T07:14:40.728Z,22.41
2018-05-26T07:17:09.339Z,22.41
2018-05-26T07:19:37.897Z,22.53
2018-05-26T07:22:06.820Z,22.41
2018-05-26T07:24:35.547Z,22.36
2018-05-26T07:27:04.217Z,22.42
2018-05-26T07:29:32.781Z,22.51
2018-05-26T07:32:01.370Z,22.56
2018-05-26T07:34:29.991Z,22.60
2018-05-26T07:36:59.462Z,22.79
2018-05-26T07:39:28.140Z,22.83
2018-05-26T07:41:56.820Z,22.88
2018-05-26T07:44:25.544Z,22.73
2018-05-26T07:46:54.140Z,22.76
2018-05-26T07:49:22.727Z,22.53
2018-05-26T07:51:51.479Z,22.57
2018-05-26T07:54:20.043Z,22.60
2018-05-26T07:56:48.711Z,22.58
2018-05-26T07:59:17.271Z,22.69
2018-05-26T08:01:45.870Z,22.80
2018-05-26T08:04:14.489Z,22.96
2018-05-26T08:06:42.802Z,22.96
2018-05-26T08:09:11.460Z,23.18
2018-05-26T08:11:40.026Z,23.30
2018-05-26T08:14:08.583Z,23.33
2018-05-26T08:16:37.143Z,23.28
2018-05-26T08:19:05.719Z,23.38
2018-05-26T08:21:34.275Z,23.50
2018-05-26T08:24:02.920Z,23.65
2018-05-26T08:26:31.516Z,23.77
2018-05-26T08:29:00.076Z,23.74
2018-05-26T08:31:28.639Z,23.71
2018-05-26T08:33:57.200Z,23.70
2018-05-26T08:36:25.755Z,23.77
2018-05-26T08:38:54.319Z,23.75
2018-05-26T08:41:22.879Z,23.85
2018-05-26T08:43:51.448Z,23.87
2018-05-26T08:46:20.003Z,24.07
2018-05-26T08:48:48.565Z,24.15
2018-05-26T08:51:17.114Z,24.13
2018-05-26T08:53:45.674Z,24.24
2018-05-26T08:56:14.258Z,23.97
2018-05-26T08:58:42.859Z,24.08
2018-05-26T09:01:11.470Z,24.26
2018-05-26T09:03:40.029Z,24.26
2018-05-26T09:06:08.579Z,24.68
2018-05-26T09:08:37.129Z,25.06
2018-05-26T09:11:05.679Z,25.04
2018-05-26T09:13:34.231Z,25.25
2018-05-26T09:16:02.481Z,25.31
2018-05-26T09:18:31.204Z,24.82
2018-05-26T09:20:59.756Z,24.29
2018-05-26T09:23:28.404Z,24.17
2018-05-26T09:25:56.962Z,23.95
2018-05-26T09:28:25.540Z,23.95
2018-05-26T09:30:54.108Z,24.03
2018-05-26T09:33:22.659Z,23.92
2018-05-26T09:35:51.224Z,24.04
2018-05-26T09:38:19.784Z,24.26
2018-05-26T09:40:48.336Z,23.83
2018-05-26T09:43:16.896Z,24.07
2018-05-26T09:45:45.455Z,23.94
2018-05-26T09:48:14.006Z,24.15
2018-05-26T09:50:42.566Z,24.40
2018-05-26T09:53:11.123Z,23.81
2018-05-26T09:55:39.676Z,23.91
2018-05-26T09:58:08.227Z,24.04
2018-05-26T10:00:36.799Z,24.12
2018-05-26T10:03:05.356Z,24.43
2018-05-26T10:05:33.906Z,24.62
2018-05-26T10:08:02.501Z,24.76
2018-05-26T10:10:31.052Z,24.43
2018-05-26T10:12:59.598Z,24.54
2018-05-26T10:15:28.207Z,24.89
2018-05-26T10:17:57.699Z,24.88
2018-05-26T10:20:26.273Z,24.66
2018-05-26T10:22:54.991Z,24.64
2018-05-26T10:25:23.548Z,24.57
2018-05-26T10:27:52.100Z,24.63
2018-05-26T10:30:20.648Z,24.56
2018-05-26T10:32:49.292Z,24.43
2018-05-26T10:35:17.840Z,24.31
2018-05-26T10:37:46.403Z,24.53
2018-05-26T10:40:14.961Z,24.79
2018-05-26T10:42:43.527Z,24.66
2018-05-26T10:45:12.075Z,24.55
2018-05-26T10:47:40.633Z,24.84
2018-05-26T10:50:09.634Z,24.70
2018-05-26T10:52:38.201Z,24.81
2018-05-26T10:55:06.771Z,24.90
2018-05-26T10:57:35.373Z,24.55
2018-05-26T11:00:05.621Z,24.66
2018-05-26T11:02:34.170Z,24.74
2018-05-26T11:05:02.728Z,24.79
2018-05-26T11:07:31.284Z,25.09
2018-05-26T11:09:59.873Z,25.24
2018-05-26T11:12:28.432Z,25.30
2018-05-26T11:14:56.983Z,24.73
2018-05-26T11:17:25.555Z,24.82
2018-05-26T11:19:54.108Z,24.95
2018-05-26T11:22:22.673Z,25.04
2018-05-26T11:24:51.314Z,25.10
2018-05-26T11:27:20.010Z,24.95
2018-05-26T11:29:48.606Z,24.80
2018-05-26T11:32:17.184Z,24.78
2018-05-26T11:34:45.753Z,24.89
2018-05-26T11:37:14.311Z,25.10
2018-05-26T11:39:42.854Z,24.98
2018-05-26T11:42:11.410Z,24.76
2018-05-26T11:44:40.053Z,24.69
2018-05-26T11:47:08.615Z,24.49
2018-05-26T11:49:37.197Z,24.66
2018-05-26T11:52:05.766Z,24.65
2018-05-26T11:54:34.341Z,24.71
2018-05-26T11:57:02.921Z,24.94
2018-05-26T11:59:31.467Z,25.07
2018-05-26T12:02:00.055Z,25.14
2018-05-26T12:04:28.763Z,24.95
2018-05-26T12:06:57.317Z,24.77
2018-05-26T12:09:25.876Z,24.87
2018-05-26T12:11:54.432Z,25.01
2018-05-26T12:14:22.979Z,24.95
2018-05-26T12:16:51.525Z,24.71
2018-05-26T12:19:20.066Z,24.60
2018-05-26T12:21:48.619Z,24.62
2018-05-26T12:24:17.171Z,24.59
2018-05-26T12:26:45.747Z,24.77
2018-05-26T12:29:14.313Z,24.80
2018-05-26T12:31:42.883Z,24.89
2018-05-26T12:34:11.431Z,24.87
2018-05-26T12:36:39.993Z,24.65
2018-05-26T12:39:08.568Z,24.67
2018-05-26T12:41:37.123Z,24.73
2018-05-26T12:44:05.681Z,24.64
2018-05-26T12:46:34.230Z,24.75
2018-05-26T12:49:02.771Z,24.83
2018-05-26T12:51:31.328Z,24.77
2018-05-26T12:53:59.869Z,24.84
2018-05-26T12:56:28.419Z,24.81
2018-05-26T12:58:56.967Z,24.69
2018-05-26T13:01:25.533Z,24.61
2018-05-26T13:03:54.081Z,24.77
2018-05-26T13:06:22.626Z,24.69
2018-05-26T13:08:51.219Z,24.74
2018-05-26T13:11:19.772Z,24.95
2018-05-26T13:13:48.321Z,25.12
2018-05-26T13:16:16.870Z,25.32
2018-05-26T13:18:45.433Z,25.46
2018-05-26T13:21:14.027Z,25.29
2018-05-26T13:23:42.575Z,25.31
2018-05-26T13:26:11.163Z,25.38
2018-05-26T13:28:39.743Z,25.32
2018-05-26T13:31:08.319Z,25.13
2018-05-26T13:33:36.873Z,25.15
2018-05-26T13:36:05.456Z,25.23
2018-05-26T13:38:34.013Z,25.11
2018-05-26T13:41:02.612Z,24.93
2018-05-26T13:43:31.165Z,24.72
2018-05-26T13:45:59.722Z,24.58
2018-05-26T13:48:28.298Z,24.59
2018-05-26T13:50:57.024Z,24.58
2018-05-26T13:53:25.605Z,24.84
2018-05-26T13:55:54.364Z,24.90
2018-05-26T13:58:23.078Z,24.95
2018-05-26T14:00:51.675Z,25.01
2018-05-26T14:03:20.357Z,25.03
2018-05-26T14:05:48.931Z,25.15
2018-05-26T14:08:17.685Z,25.05
2018-05-26T14:10:47.030Z,25.06
2018-05-26T14:13:15.621Z,24.95
2018-05-26T14:15:44.180Z,25.10
2018-05-26T14:18:12.740Z,25.00
2018-05-26T14:20:41.291Z,25.01
2018-05-26T14:23:09.873Z,25.09
2018-05-26T14:25:38.604Z,25.19
2018-05-26T14:28:07.187Z,25.12
2018-05-26T14:30:35.861Z,25.08
2018-05-26T14:33:04.571Z,25.14
2018-05-26T14:35:33.128Z,25.25
2018-05-26T14:38:01.696Z,25.44
2018-05-26T14:40:30.258Z,25.26
2018-05-26T14:42:58.798Z,25.19
2018-05-26T14:45:27.345Z,25.17
2018-05-26T14:47:55.908Z,25.38
2018-05-26T14:50:24.459Z,25.41
2018-05-26T14:52:53.059Z,25.55
2018-05-26T14:55:21.611Z,25.60
2018-05-26T14:57:50.163Z,25.75
2018-05-26T15:00:18.775Z,25.52
2018-05-26T15:02:47.524Z,25.49
2018-05-26T15:05:16.083Z,25.42
2018-05-26T15:07:44.641Z,25.47
2018-05-26T15:10:12.831Z,25.59
2018-05-26T15:12:41.395Z,25.61
2018-05-26T15:15:10.147Z,25.62
2018-05-26T15:17:38.711Z,25.60
2018-05-26T15:20:07.275Z,25.62
2018-05-26T15:22:35.829Z,25.63
2018-05-26T15:25:04.398Z,25.74
2018-05-26T15:27:32.981Z,25.67
2018-05-26T15:30:01.527Z,25.72
2018-05-26T15:32:30.106Z,25.76
2018-05-26T15:34:58.661Z,25.73
2018-05-26T15:37:27.255Z,25.72
2018-05-26T15:39:55.798Z,25.49
2018-05-26T15:42:24.347Z,25.42
2018-05-26T15:44:53.103Z,25.48
2018-05-26T15:47:21.655Z,25.48
2018-05-26T15:49:50.204Z,25.50
2018-05-26T15:52:18.774Z,25.50
2018-05-26T15:54:47.328Z,25.50
2018-05-26T15:57:15.897Z,25.40
2018-05-26T15:59:44.468Z,25.27
2018-05-26T16:02:13.024Z,25.31
2018-05-26T16:04:41.603Z,25.27
2018-05-26T16:07:10.180Z,25.34
2018-05-26T16:09:38.766Z,24.97
2018-05-26T16:12:07.315Z,24.87
2018-05-26T16:14:35.866Z,24.91
2018-05-26T16:17:04.420Z,24.85
2018-05-26T16:19:32.967Z,24.96
2018-05-26T16:22:01.511Z,24.99
2018-05-26T16:24:30.063Z,25.16
2018-05-26T16:26:58.624Z,25.48
2018-05-26T16:29:27.188Z,25.49
2018-05-26T16:31:55.919Z,25.29
2018-05-26T16:34:24.468Z,25.07
2018-05-26T16:36:53.087Z,25.13
2018-05-26T16:39:21.639Z,25.05
2018-05-26T16:41:50.241Z,24.95
2018-05-26T16:44:18.995Z,24.73
2018-05-26T16:46:47.551Z,24.81
2018-05-26T16:49:16.120Z,23.42
2018-05-26T16:51:44.720Z,22.18
2018-05-26T16:54:13.284Z,21.99
2018-05-26T16:56:41.833Z,22.07
2018-05-26T16:59:10.388Z,22.07
2018-05-26T17:01:38.947Z,22.18
2018-05-26T17:04:07.519Z,22.18
2018-05-26T17:06:36.132Z,22.27
2018-05-26T17:09:03.771Z,22.29
2018-05-26T17:11:32.359Z,22.33
2018-05-26T17:14:00.910Z,22.42
2018-05-26T17:16:29.562Z,22.43
2018-05-26T17:18:58.271Z,22.44
2018-05-26T17:21:26.827Z,22.57
2018-05-26T17:23:55.384Z,22.64
2018-05-26T17:26:24.052Z,22.64
2018-05-26T17:28:52.604Z,22.63
2018-05-26T17:31:21.163Z,22.57
2018-05-26T17:33:49.708Z,22.53
2018-05-26T17:36:18.276Z,22.49
2018-05-26T17:38:46.831Z,22.47
2018-05-26T17:41:15.400Z,22.50
2018-05-26T17:43:43.594Z,22.47
2018-05-26T17:46:12.244Z,22.48
2018-05-26T17:48:40.808Z,22.40
2018-05-26T17:51:09.394Z,22.45
2018-05-26T17:53:37.948Z,22.44
2018-05-26T17:56:06.503Z,22.43
2018-05-26T17:58:35.057Z,22.46
2018-05-26T18:01:03.608Z,22.45
2018-05-26T18:03:32.189Z,22.40
2018-05-26T18:06:00.756Z,22.41
2018-05-26T18:08:29.339Z,22.33
2018-05-26T18:10:58.071Z,22.38
2018-05-26T18:13:26.632Z,22.39
2018-05-26T18:15:55.378Z,22.36
2018-05-26T18:18:23.958Z,22.34
2018-05-26T18:20:52.515Z,22.32
2018-05-26T18:23:21.092Z,22.29
2018-05-26T18:25:49.663Z,22.25
2018-05-26T18:28:18.228Z,22.14
2018-05-26T18:30:46.799Z,22.06
2018-05-26T18:33:15.371Z,22.07
2018-05-26T18:35:43.919Z,22.09
2018-05-26T18:38:12.462Z,22.09
2018-05-26T18:40:41.010Z,21.99
2018-05-26T18:43:09.584Z,21.86
2018-05-26T18:45:38.189Z,21.78
2018-05-26T18:48:06.740Z,21.73
2018-05-26T18:50:35.287Z,21.62
2018-05-26T18:53:03.895Z,21.57
2018-05-26T18:55:32.490Z,21.40
2018-05-26T18:58:01.079Z,21.35
2018-05-26T19:00:29.652Z,21.30
2018-05-26T19:02:57.975Z,21.29
2018-05-26T19:05:26.531Z,21.26
2018-05-26T19:07:55.189Z,21.21
2018-05-26T19:10:23.746Z,21.17
2018-05-26T19:12:52.310Z,21.15
2018-05-26T19:15:20.889Z,21.14
2018-05-26T19:17:49.525Z,21.21
2018-05-26T19:20:18.081Z,21.28
2018-05-26T19:22:46.667Z,21.32
2018-05-26T19:25:15.276Z,21.34
2018-05-26T19:27:43.875Z,21.31
2018-05-26T19:30:12.447Z,21.34
2018-05-26T19:32:41.002Z,21.34
2018-05-26T19:35:09.559Z,21.35
2018-05-26T19:37:38.134Z,21.40
2018-05-26T19:40:06.685Z,21.38
2018-05-26T19:42:35.239Z,21.35
2018-05-26T19:45:03.854Z,21.22
2018-05-26T19:47:32.403Z,21.17
2018-05-26T19:50:00.972Z,21.16
2018-05-26T19:52:29.711Z,21.16
2018-05-26T19:54:58.281Z,21.18
2018-05-26T19:57:26.841Z,21.23
2018-05-26T19:59:55.484Z,21.25
2018-05-26T20:02:24.048Z,21.19
2018-05-26T20:04:52.651Z,21.15
2018-05-26T20:07:21.308Z,21.11
2018-05-26T20:09:49.912Z,21.08
2018-05-26T20:12:18.502Z,21.02
2018-05-26T20:14:47.061Z,20.96
2018-05-26T20:17:15.676Z,20.96
2018-05-26T20:19:44.235Z,20.89
2018-05-26T20:22:12.796Z,20.82
2018-05-26T20:24:41.356Z,20.80
2018-05-26T20:27:09.916Z,20.73
2018-05-26T20:29:38.529Z,20.76
2018-05-26T20:32:07.097Z,20.78
2018-05-26T20:34:35.657Z,20.81
2018-05-26T20:37:04.228Z,20.88
2018-05-26T20:39:34.647Z,20.90
2018-05-26T20:42:03.297Z,20.97
2018-05-26T20:44:31.851Z,20.98
2018-05-26T20:47:00.415Z,20.98
2018-05-26T20:49:28.971Z,20.97
2018-05-26T20:51:57.598Z,21.00
2018-05-26T20:54:26.646Z,21.02
2018-05-26T20:56:55.199Z,21.01
2018-05-26T20:59:23.754Z,21.02
2018-05-26T21:01:52.889Z,21.02
2018-05-26T21:04:21.494Z,20.95
2018-05-26T21:06:50.129Z,20.91
2018-05-26T21:09:18.848Z,20.90
2018-05-26T21:11:47.408Z,20.88
2018-05-26T21:14:15.964Z,20.83
2018-05-26T21:16:44.516Z,20.80
2018-05-26T21:19:13.066Z,20.77
2018-05-26T21:21:41.631Z,20.54
2018-05-26T21:24:10.214Z,20.51
2018-05-26T21:26:38.783Z,20.52
2018-05-26T21:29:08.531Z,20.51
2018-05-26T21:31:37.367Z,20.51
2018-05-26T21:34:05.981Z,20.47
2018-05-26T21:36:34.677Z,20.42
2018-05-26T21:39:03.288Z,20.33
2018-05-26T21:41:31.844Z,20.42
2018-05-26T21:44:00.401Z,20.44
2018-05-26T21:46:28.971Z,20.46
2018-05-26T21:48:57.540Z,20.47
2018-05-26T21:51:26.091Z,20.50
2018-05-26T21:53:54.651Z,20.47
2018-05-26T21:56:23.207Z,20.47
2018-05-26T21:58:51.765Z,20.41
2018-05-26T22:01:20.335Z,20.39
2018-05-26T22:03:48.886Z,20.26
2018-05-26T22:06:17.436Z,20.25
2018-05-26T22:08:46.027Z,20.18
2018-05-26T22:11:14.575Z,20.13
2018-05-26T22:13:43.126Z,20.05
2018-05-26T22:16:11.742Z,20.03
2018-05-26T22:18:40.295Z,19.99
2018-05-26T22:21:08.847Z,19.98
2018-05-26T22:23:37.414Z,20.03
2018-05-26T22:26:05.974Z,20.10
2018-05-26T22:28:34.527Z,20.09
2018-05-26T22:31:03.090Z,20.03
2018-05-26T22:33:31.640Z,20.04
2018-05-26T22:36:00.204Z,20.04
2018-05-26T22:38:28.820Z,19.99
2018-05-26T22:40:57.527Z,20.03
2018-05-26T22:43:26.088Z,19.98
2018-05-26T22:45:54.643Z,20.03
2018-05-26T22:48:23.195Z,20.05
2018-05-26T22:50:51.754Z,20.01
2018-05-26T22:53:20.338Z,20.07
2018-05-26T22:55:48.890Z,20.10
2018-05-26T22:58:17.454Z,20.06
2018-05-26T23:00:46.020Z,20.04
2018-05-26T23:03:14.563Z,20.06
2018-05-26T23:05:43.117Z,20.10
2018-05-26T23:08:11.871Z,20.17
2018-05-26T23:10:40.431Z,20.22
2018-05-26T23:13:08.978Z,20.23
2018-05-26T23:15:37.539Z,20.29
2018-05-26T23:18:06.097Z,20.23
2018-05-26T23:20:34.657Z,20.19
2018-05-26T23:23:03.220Z,20.06
2018-05-26T23:25:31.800Z,20.03
2018-05-26T23:28:00.416Z,20.07
2018-05-26T23:30:28.963Z,20.13
2018-05-26T23:32:57.506Z,20.18
2018-05-26T23:35:26.066Z,20.16
2018-05-26T23:37:54.621Z,20.19
2018-05-26T23:40:23.175Z,20.24
2018-05-26T23:42:51.728Z,20.30
2018-05-26T23:45:20.286Z,20.34
2018-05-26T23:47:48.835Z,20.32
2018-05-26T23:50:17.382Z,20.29
2018-05-26T23:52:45.639Z,20.22
2018-05-26T23:55:14.190Z,20.25
2018-05-26T23:57:42.734Z,20.22
